Time;durP1;ratioP1;P1;durP2;ratioP2;P2;SDS_P1;SDS_P2;PMS_P1;PMS_P2;Temp;Humidity;BMP_temperature;BMP_pressure;BME280_temperature;BME280_humidity;BME280_pressure;Samples;Min_cycle;Max_cycle;Signal;HPM_P1;HPM_P2
2020/12/22 00:00:58;;;;;;;26.90;24.30;;;9.30;99.90;;;;;;4985775;28;20487;-68
2020/12/22 00:03:24;;;;;;;29.83;26.73;;;9.40;99.90;;;;;;4976727;28;21005;-71
2020/12/22 00:05:52;;;;;;;26.27;21.70;;;9.30;99.90;;;;;;4994376;28;20973;-71
2020/12/22 00:08:19;;;;;;;27.73;25.03;;;9.40;99.90;;;;;;4994854;28;20457;-71
2020/12/22 00:10:45;;;;;;;27.33;24.63;;;9.40;99.90;;;;;;4994356;28;20489;-72
2020/12/22 00:13:11;;;;;;;23.70;21.27;;;9.50;99.90;;;;;;4994849;28;20457;-72
2020/12/22 00:15:38;;;;;;;24.50;22.10;;;9.50;99.90;;;;;;4993404;28;20474;-74
2020/12/22 00:18:04;;;;;;;25.30;22.23;;;9.60;99.90;;;;;;4976038;28;20804;-70
2020/12/22 00:20:30;;;;;;;25.67;21.60;;;9.60;99.90;;;;;;4993992;28;20536;-69
2020/12/22 00:22:57;;;;;;;26.43;23.87;;;9.60;99.90;;;;;;4994380;28;20486;-72
2020/12/22 00:25:24;;;;;;;25.60;23.20;;;9.60;99.90;;;;;;4987817;28;20466;-71
2020/12/22 00:27:50;;;;;;;24.87;22.37;;;9.60;99.90;;;;;;4995098;28;20446;-72
2020/12/22 00:30:16;;;;;;;25.30;22.30;;;9.70;99.90;;;;;;4990477;28;20487;-68
2020/12/22 00:32:43;;;;;;;25.00;22.53;;;9.50;99.90;;;;;;4992644;28;21313;-69
2020/12/22 00:35:09;;;;;;;24.63;21.80;;;9.80;99.90;;;;;;4980948;28;20472;-71
2020/12/22 00:37:35;;;;;;;25.63;22.23;;;9.90;99.90;;;;;;4975218;28;20492;-70
2020/12/22 00:40:01;;;;;;;23.70;21.30;;;9.90;99.90;;;;;;4989271;28;20470;-75
2020/12/22 00:42:32;;;;;;;25.07;22.47;;;9.80;99.90;;;;;;5006984;23;20502;-73
2020/12/22 00:44:58;;;;;;;26.20;23.60;;;10.00;99.90;;;;;;4985213;28;20467;-73
2020/12/22 00:47:25;;;;;;;24.27;21.80;;;9.90;99.90;;;;;;4983015;28;20455;-74
2020/12/22 00:49:51;;;;;;;23.30;20.80;;;9.90;99.90;;;;;;4977092;28;20466;-73
2020/12/22 00:52:18;;;;;;;23.77;21.20;;;10.00;99.90;;;;;;4994401;28;20565;-74
2020/12/22 00:54:44;;;;;;;21.60;19.40;;;10.10;99.90;;;;;;4980617;28;20451;-73
2020/12/22 00:57:10;;;;;;;23.77;21.30;;;10.20;99.90;;;;;;4989256;28;20466;-73
2020/12/22 00:59:37;;;;;;;23.83;21.40;;;10.20;99.90;;;;;;4975973;28;20509;-72
2020/12/22 01:02:05;;;;;;;22.90;20.60;;;10.20;99.90;;;;;;4974685;28;20490;-72
2020/12/22 01:04:32;;;;;;;24.60;22.00;;;10.30;99.90;;;;;;4975527;28;20868;-72
2020/12/22 01:06:58;;;;;;;24.90;21.20;;;10.40;99.90;;;;;;4985403;28;20459;-72
2020/12/22 01:09:24;;;;;;;24.90;22.27;;;10.40;99.90;;;;;;4977986;28;20470;-72
2020/12/22 01:11:51;;;;;;;25.60;22.83;;;10.50;99.90;;;;;;4992862;28;20608;-74
2020/12/22 01:14:17;;;;;;;26.80;23.47;;;10.50;99.90;;;;;;4978063;28;20868;-73
2020/12/22 01:16:44;;;;;;;25.63;23.13;;;10.50;99.90;;;;;;4974230;28;20456;-73
2020/12/22 01:19:11;;;;;;;21.20;19.07;;;10.80;99.90;;;;;;4985294;28;20470;-73
2020/12/22 01:21:37;;;;;;;23.73;21.23;;;10.70;99.90;;;;;;4979589;28;20545;-73
2020/12/22 01:24:04;;;;;;;24.23;21.63;;;10.70;99.90;;;;;;4974378;28;20586;-73
2020/12/22 01:26:31;;;;;;;24.57;20.93;;;10.80;99.90;;;;;;4986139;28;20466;-73
2020/12/22 01:28:57;;;;;;;25.50;22.90;;;10.80;99.90;;;;;;4986755;28;20517;-72
2020/12/22 01:31:25;;;;;;;24.63;22.03;;;10.90;99.90;;;;;;4973878;28;20494;-72
2020/12/22 01:33:52;;;;;;;25.80;23.10;;;11.00;99.90;;;;;;4978535;28;20483;-72
2020/12/22 01:36:18;;;;;;;22.73;20.40;;;11.00;99.90;;;;;;4974921;28;20833;-72
2020/12/22 01:38:45;;;;;;;24.07;21.27;;;11.20;99.90;;;;;;4973576;28;20513;-72
2020/12/22 01:41:11;;;;;;;23.13;20.67;;;11.30;99.90;;;;;;4993290;28;20458;-72
2020/12/22 01:43:38;;;;;;;24.23;21.70;;;11.30;99.90;;;;;;4981927;28;20515;-72
2020/12/22 01:46:04;;;;;;;24.57;20.70;;;11.30;99.90;;;;;;4982012;28;20471;-72
2020/12/22 01:48:31;;;;;;;25.27;22.57;;;11.40;99.90;;;;;;4985554;28;20514;-72
2020/12/22 01:50:59;;;;;;;21.97;19.60;;;11.30;99.90;;;;;;4978484;28;20908;-71
2020/12/22 01:53:25;;;;;;;22.47;20.00;;;11.60;99.90;;;;;;4986161;28;20475;-71
2020/12/22 01:55:52;;;;;;;21.93;19.40;;;11.60;99.90;;;;;;4972111;28;20478;-71
2020/12/22 01:58:19;;;;;;;23.07;20.67;;;11.40;99.90;;;;;;4979991;28;20472;-71
2020/12/22 02:00:46;;;;;;;23.00;20.80;;;11.50;99.90;;;;;;4981624;28;20448;-71
2020/12/22 02:03:12;;;;;;;22.87;20.47;;;11.50;99.90;;;;;;4976711;28;20498;-71
2020/12/22 02:05:39;;;;;;;23.90;21.33;;;11.60;99.90;;;;;;4991107;28;20465;-71
2020/12/22 02:08:07;;;;;;;23.67;19.73;;;11.70;99.90;;;;;;4973320;28;20840;-71
2020/12/22 02:10:33;;;;;;;23.30;20.50;;;11.70;99.90;;;;;;4986680;28;20492;-71
2020/12/22 02:13:00;;;;;;;24.20;21.60;;;11.70;99.90;;;;;;4989454;28;20479;-71
2020/12/22 02:15:26;;;;;;;24.33;20.87;;;11.80;99.90;;;;;;4974031;28;20518;-73
2020/12/22 02:17:53;;;;;;;25.53;21.03;;;11.90;99.90;;;;;;4977613;28;20851;-72
2020/12/22 02:20:19;;;;;;;27.03;21.23;;;12.10;99.90;;;;;;4975200;28;20455;-72
2020/12/22 02:22:46;;;;;;;24.00;21.10;;;12.10;99.90;;;;;;4976240;28;20574;-72
2020/12/22 02:25:15;;;;;;;23.23;18.73;;;12.20;99.90;;;;;;4971341;28;20466;-72
2020/12/22 02:27:41;;;;;;;21.23;18.87;;;11.90;99.90;;;;;;4995407;28;20474;-72
2020/12/22 02:30:09;;;;;;;23.20;19.83;;;12.20;99.90;;;;;;4978044;28;20467;-72
2020/12/22 02:32:36;;;;;;;25.47;21.70;;;12.10;99.90;;;;;;4976869;28;21018;-72
2020/12/22 02:35:04;;;;;;;24.47;20.40;;;12.40;99.90;;;;;;4976397;28;20820;-73
2020/12/22 02:37:30;;;;;;;26.90;20.13;;;12.40;99.90;;;;;;4977918;28;20832;-73
2020/12/22 02:39:57;;;;;;;26.37;21.30;;;12.40;99.90;;;;;;4986537;28;20475;-73
2020/12/22 02:42:23;;;;;;;23.20;19.10;;;12.30;99.90;;;;;;4977425;28;20499;-72
2020/12/22 02:44:50;;;;;;;23.77;20.80;;;12.50;99.90;;;;;;4994482;28;20494;-72
2020/12/22 02:47:16;;;;;;;23.00;20.40;;;12.60;99.90;;;;;;4999488;28;20505;-73
2020/12/22 02:49:44;;;;;;;19.43;17.50;;;12.60;99.90;;;;;;4995312;28;20597;-71
2020/12/22 02:52:11;;;;;;;26.40;20.87;;;12.50;99.90;;;;;;4999412;28;20540;-72
2020/12/22 02:54:37;;;;;;;24.13;20.87;;;12.50;99.90;;;;;;5008812;28;20547;-72
2020/12/22 02:57:05;;;;;;;20.90;18.60;;;12.50;99.90;;;;;;4992769;28;20471;-71
2020/12/22 02:59:31;;;;;;;25.70;20.27;;;12.60;99.90;;;;;;4999334;28;20467;-72
2020/12/22 03:01:57;;;;;;;22.10;18.40;;;12.80;99.90;;;;;;4998207;28;20542;-72
2020/12/22 03:04:24;;;;;;;24.40;19.40;;;12.80;99.90;;;;;;4990507;28;20526;-72
2020/12/22 03:06:50;;;;;;;25.10;19.57;;;12.80;99.90;;;;;;4988114;28;20463;-71
2020/12/22 03:09:16;;;;;;;23.80;19.87;;;13.00;99.90;;;;;;4986720;28;20474;-72
2020/12/22 03:11:43;;;;;;;20.70;18.20;;;13.20;99.90;;;;;;4986970;28;20472;-72
2020/12/22 03:14:10;;;;;;;21.70;17.20;;;13.20;99.90;;;;;;4975478;28;21026;-71
2020/12/22 03:16:36;;;;;;;20.47;17.30;;;13.10;99.90;;;;;;4979919;28;20467;-72
2020/12/22 03:19:03;;;;;;;18.97;16.97;;;13.20;99.90;;;;;;4976256;28;20513;-72
2020/12/22 03:21:29;;;;;;;25.53;19.10;;;13.20;99.90;;;;;;4981301;28;20467;-72
2020/12/22 03:23:55;;;;;;;25.57;19.60;;;13.60;99.90;;;;;;4975499;28;20887;-72
2020/12/22 03:26:21;;;;;;;19.70;16.47;;;13.40;99.90;;;;;;4977820;28;20468;-72
2020/12/22 03:28:48;;;;;;;28.23;18.57;;;13.70;99.90;;;;;;4976211;28;20485;-73
2020/12/22 03:31:15;;;;;;;21.47;17.33;;;13.70;99.90;;;;;;4987793;28;20474;-73
2020/12/22 03:33:41;;;;;;;23.63;17.97;;;13.80;99.90;;;;;;4975721;28;20467;-72
2020/12/22 03:36:07;;;;;;;20.93;17.40;;;13.70;99.90;;;;;;4977493;28;20463;-72
2020/12/22 03:38:34;;;;;;;19.07;17.00;;;13.90;99.90;;;;;;4974751;28;20981;-72
2020/12/22 03:41:00;;;;;;;20.73;17.00;;;13.90;99.90;;;;;;4975363;28;20462;-72
2020/12/22 03:43:26;;;;;;;20.90;17.43;;;14.10;99.90;;;;;;4976356;28;20586;-73
2020/12/22 03:45:56;;;;;;;20.33;15.50;;;14.00;99.90;;;;;;4975722;28;20455;-73
2020/12/22 03:48:25;;;;;;;16.67;14.70;;;14.10;99.90;;;;;;4980831;28;20523;-73
2020/12/22 03:50:52;;;;;;;19.20;15.23;;;14.20;99.90;;;;;;4987733;28;20467;-73
2020/12/22 03:53:18;;;;;;;17.27;13.93;;;14.30;99.90;;;;;;4975803;28;20475;-73
2020/12/22 03:55:44;;;;;;;17.90;14.87;;;14.40;99.90;;;;;;4976824;28;20479;-73
2020/12/22 03:58:10;;;;;;;16.00;13.23;;;14.70;99.90;;;;;;4965764;28;20471;-73
2020/12/22 04:00:37;;;;;;;15.00;13.13;;;14.80;99.90;;;;;;4975739;28;20447;-73
2020/12/22 04:03:03;;;;;;;15.47;12.73;;;14.60;99.90;;;;;;4973298;28;20502;-74
2020/12/22 04:05:30;;;;;;;17.50;15.70;;;14.90;99.90;;;;;;4991459;28;20488;-73
2020/12/22 04:07:56;;;;;;;15.90;14.30;;;14.70;99.90;;;;;;4977732;28;20460;-74
2020/12/22 04:10:23;;;;;;;16.70;15.10;;;15.00;99.90;;;;;;4977057;28;20806;-74
2020/12/22 04:12:49;;;;;;;15.80;14.30;;;15.30;99.90;;;;;;4978276;28;20482;-74
2020/12/22 04:15:15;;;;;;;14.70;13.37;;;15.40;99.90;;;;;;4994527;28;20474;-73
2020/12/22 04:17:42;;;;;;;15.07;13.63;;;15.50;99.90;;;;;;4980169;28;20460;-73
2020/12/22 04:20:08;;;;;;;16.73;15.07;;;15.80;99.90;;;;;;4986062;28;20526;-73
2020/12/22 04:22:35;;;;;;;15.30;13.70;;;15.80;99.90;;;;;;5003974;28;20494;-73
2020/12/22 04:25:01;;;;;;;14.80;13.40;;;16.00;99.90;;;;;;5000466;28;20573;-73
2020/12/22 04:27:27;;;;;;;15.27;13.77;;;16.20;99.90;;;;;;4990683;28;20454;-73
2020/12/22 04:29:54;;;;;;;16.20;14.60;;;16.10;99.90;;;;;;4982640;28;20471;-73
2020/12/22 04:32:20;;;;;;;15.73;14.13;;;16.10;99.90;;;;;;4975250;28;20879;-73
2020/12/22 04:34:46;;;;;;;14.87;13.33;;;16.40;99.90;;;;;;4991925;28;20471;-73
2020/12/22 04:37:13;;;;;;;14.47;13.03;;;16.10;99.90;;;;;;4979018;28;20470;-74
2020/12/22 04:39:40;;;;;;;15.97;13.00;;;16.40;99.90;;;;;;4974428;28;20468;-73
2020/12/22 04:42:07;;;;;;;13.90;12.50;;;16.60;99.90;;;;;;4978726;28;20480;-74
2020/12/22 04:44:33;;;;;;;11.97;10.70;;;16.30;99.90;;;;;;4976328;28;20458;-74
2020/12/22 04:47:00;;;;;;;12.13;10.97;;;16.60;99.90;;;;;;4980918;28;20471;-74
2020/12/22 04:49:31;;;;;;;12.53;11.30;;;16.80;99.90;;;;;;4994210;28;20451;-74
2020/12/22 04:52:00;;;;;;;12.57;11.37;;;17.20;99.90;;;;;;4987997;28;20559;-74
2020/12/22 04:54:26;;;;;;;11.20;10.00;;;17.30;99.90;;;;;;4994086;28;20454;-74
2020/12/22 04:56:53;;;;;;;9.70;8.80;;;17.60;99.90;;;;;;4987920;28;20498;-73
2020/12/22 04:59:20;;;;;;;10.10;9.20;;;17.40;99.90;;;;;;4986535;28;20471;-74
2020/12/22 05:01:48;;;;;;;10.47;9.47;;;17.50;99.90;;;;;;4985463;28;20521;-73
2020/12/22 05:04:14;;;;;;;10.23;9.23;;;17.70;99.90;;;;;;4983932;28;20494;-73
2020/12/22 05:06:41;;;;;;;9.50;8.60;;;18.20;99.90;;;;;;4983605;28;20471;-72
2020/12/22 05:09:07;;;;;;;9.80;8.27;;;18.20;99.90;;;;;;4975041;28;20443;-72
2020/12/22 05:11:35;;;;;;;8.60;7.90;;;18.30;99.90;;;;;;4978245;28;20471;-73
2020/12/22 05:14:03;;;;;;;8.00;7.30;;;18.30;99.90;;;;;;4974228;28;20471;-73
2020/12/22 05:16:29;;;;;;;7.27;6.57;;;19.00;99.90;;;;;;4973430;28;20800;-73
2020/12/22 05:18:56;;;;;;;7.60;6.17;;;19.20;99.90;;;;;;4985689;28;20540;-74
2020/12/22 05:21:23;;;;;;;5.83;5.40;;;19.30;99.90;;;;;;4985639;28;20463;-74
2020/12/22 05:23:50;;;;;;;5.83;5.33;;;19.50;99.90;;;;;;4972281;28;20487;-74
2020/12/22 05:26:19;;;;;;;5.30;4.80;;;19.80;99.90;;;;;;4974348;28;20451;-74
2020/12/22 05:28:45;;;;;;;4.77;4.37;;;20.30;99.90;;;;;;4973501;28;20447;-74
2020/12/22 05:31:16;;;;;;;5.40;5.00;;;20.40;99.90;;;;;;4974881;28;20462;-74
2020/12/22 05:33:43;;;;;;;5.80;5.30;;;20.90;99.90;;;;;;4979046;28;20483;-74
2020/12/22 05:36:10;;;;;;;6.63;6.13;;;22.10;99.90;;;;;;4958821;28;20452;-73
2020/12/22 05:38:37;;;;;;;7.50;6.80;;;22.60;99.90;;;;;;4992198;28;20470;-73
2020/12/22 05:41:05;;;;;;;8.53;7.73;;;22.60;99.90;;;;;;4991820;28;20470;-74
2020/12/22 05:43:37;;;;;;;9.30;8.40;;;23.00;99.90;;;;;;4983339;28;20491;-74
2020/12/22 05:46:04;;;;;;;9.10;8.40;;;22.70;99.90;;;;;;4974731;28;20471;-73
2020/12/22 05:48:31;;;;;;;11.27;10.33;;;23.00;99.90;;;;;;4973210;28;21050;-73
2020/12/22 05:51:02;;;;;;;11.13;10.23;;;23.20;99.90;;;;;;4972734;28;20456;-73
2020/12/22 05:53:29;;;;;;;11.30;10.40;;;23.40;99.90;;;;;;4973460;28;20482;-73
2020/12/22 05:55:56;;;;;;;12.93;11.90;;;23.40;99.90;;;;;;4974732;28;20456;-73
2020/12/22 05:58:29;;;;;;;11.83;10.93;;;23.00;99.90;;;;;;4982792;28;20451;-72
2020/12/22 06:00:56;;;;;;;12.07;10.97;;;23.40;99.90;;;;;;4972463;28;21013;-73
2020/12/22 06:03:23;;;;;;;13.57;12.47;;;22.80;99.90;;;;;;4973482;28;20487;-73
2020/12/22 06:05:50;;;;;;;13.40;12.33;;;23.10;99.90;;;;;;4973774;28;20474;-73
2020/12/22 06:08:17;;;;;;;13.73;12.63;;;22.80;99.90;;;;;;4973661;28;20481;-73
2020/12/22 06:10:44;;;;;;;14.63;13.50;;;22.80;99.90;;;;;;4987042;28;20470;-73
2020/12/22 06:13:12;;;;;;;15.03;13.73;;;22.50;99.90;;;;;;4972593;28;20487;-74
2020/12/22 06:15:40;;;;;;;15.80;14.50;;;22.80;99.90;;;;;;4983640;28;20843;-73
2020/12/22 06:18:06;;;;;;;15.83;14.57;;;22.70;99.90;;;;;;4987409;28;20462;-74
2020/12/22 06:20:33;;;;;;;16.23;14.93;;;22.20;99.90;;;;;;4972305;28;20865;-73
2020/12/22 06:23:04;;;;;;;16.20;14.90;;;22.00;99.90;;;;;;4972456;28;20487;-73
2020/12/22 06:25:31;;;;;;;17.03;15.63;;;21.90;99.90;;;;;;4983846;28;21133;-73
2020/12/22 06:27:58;;;;;;;17.50;16.10;;;22.00;99.90;;;;;;4975270;28;20467;-74
2020/12/22 06:30:33;;;;;;;17.70;16.27;;;21.70;99.90;;;;;;4973245;28;20447;-73
2020/12/22 06:33:19;;;;;;;17.20;15.70;;;22.00;99.90;;;;;;4972688;28;20463;-73
2020/12/22 06:36:05;;;;;;;17.73;16.27;;;21.80;99.90;;;;;;4991386;28;20980;-73
2020/12/22 06:38:56;;;;;;;18.43;16.83;;;21.80;99.90;;;;;;4985460;28;20466;-73
2020/12/22 06:41:44;;;;;;;17.90;16.40;;;22.00;99.90;;;;;;4990423;28;20430;-73
2020/12/22 06:44:25;;;;;;;15.83;14.60;;;21.70;99.90;;;;;;5001832;23;20494;-77
2020/12/22 06:46:52;;;;;;;16.50;15.10;;;21.50;99.90;;;;;;4981037;28;20448;-72
2020/12/22 06:49:40;;;;;;;16.63;15.23;;;21.40;99.90;;;;;;4976929;28;20546;-70
2020/12/22 06:52:30;;;;;;;15.93;14.63;;;21.60;99.90;;;;;;4974437;28;20942;-69
2020/12/22 06:54:58;;;;;;;16.23;14.93;;;21.20;99.90;;;;;;4965010;28;20452;-71
2020/12/22 06:57:44;;;;;;;15.00;13.70;;;21.10;99.90;;;;;;4973586;28;20471;-70
2020/12/22 07:00:24;;;;;;;14.50;13.20;;;21.20;99.90;;;;;;4973431;28;20478;-74
2020/12/22 07:02:51;;;;;;;14.07;12.87;;;21.10;99.90;;;;;;4972917;28;20552;-75
2020/12/22 07:05:37;;;;;;;14.57;13.47;;;20.70;99.90;;;;;;4972582;28;20459;-71
2020/12/22 07:08:04;;;;;;;12.03;11.13;;;20.70;99.90;;;;;;4973601;28;20455;-72
2020/12/22 07:10:31;;;;;;;11.90;11.00;;;20.80;99.90;;;;;;4976613;28;20474;-75
2020/12/22 07:12:59;;;;;;;12.07;11.17;;;20.30;99.90;;;;;;4977119;28;20463;-71
2020/12/22 07:15:32;;;;;;;11.20;10.40;;;20.20;99.90;;;;;;4977001;28;20474;-71
2020/12/22 07:18:10;;;;;;;11.33;10.33;;;20.10;99.90;;;;;;4976877;28;20455;-73
2020/12/22 07:20:39;;;;;;;10.70;9.83;;;20.30;99.90;;;;;;4977388;28;20446;-72
2020/12/22 07:23:05;;;;;;;10.63;9.87;;;20.00;99.90;;;;;;4976568;28;20494;-72
2020/12/22 07:25:33;;;;;;;10.40;9.60;;;20.10;99.90;;;;;;4976679;28;20452;-73
2020/12/22 07:28:01;;;;;;;9.93;9.20;;;19.80;99.90;;;;;;4976944;28;20451;-70
2020/12/22 07:30:28;;;;;;;9.27;8.60;;;19.90;99.90;;;;;;4976612;28;20584;-73
2020/12/22 07:32:58;;;;;;;9.57;8.77;;;19.90;99.90;;;;;;4976263;28;20468;-75
2020/12/22 07:35:24;;;;;;;9.00;8.37;;;18.90;99.90;;;;;;4976187;28;20474;-77
2020/12/22 07:37:51;;;;;;;8.40;7.80;;;18.90;99.90;;;;;;4976496;28;20447;-75
2020/12/22 07:40:17;;;;;;;7.93;7.37;;;19.00;99.90;;;;;;4976343;28;20456;-69
2020/12/22 07:42:44;;;;;;;8.70;8.10;;;19.00;99.90;;;;;;4976203;28;20502;-69
2020/12/22 07:45:10;;;;;;;7.73;7.17;;;19.10;99.90;;;;;;4975393;28;20443;-71
2020/12/22 07:47:37;;;;;;;7.23;6.73;;;19.50;99.90;;;;;;4975850;28;20809;-69
2020/12/22 07:50:14;;;;;;;7.23;6.73;;;19.20;99.90;;;;;;4976303;28;20451;-71
2020/12/22 07:52:41;;;;;;;7.87;7.27;;;19.40;99.90;;;;;;4968911;28;20503;-73
2020/12/22 07:55:08;;;;;;;8.67;8.07;;;20.10;99.90;;;;;;4957962;28;20452;-74
2020/12/22 07:57:37;;;;;;;8.00;7.40;;;20.20;99.90;;;;;;4975865;28;20955;-70
2020/12/22 08:00:07;;;;;;;8.90;8.10;;;20.40;99.90;;;;;;4975526;28;20470;-77
2020/12/22 08:02:33;;;;;;;8.03;7.43;;;20.30;99.90;;;;;;4971927;28;20539;-70
2020/12/22 08:05:09;;;;;;;7.57;6.87;;;20.70;99.90;;;;;;4976712;28;20447;-76
2020/12/22 08:07:35;;;;;;;6.93;6.23;;;20.90;99.90;;;;;;4957865;28;20853;-74
2020/12/22 08:10:09;;;;;;;7.47;6.97;;;21.10;99.90;;;;;;4977075;28;20451;-78
2020/12/22 08:12:36;;;;;;;6.80;6.30;;;20.90;99.90;;;;;;4975502;28;20981;-74
2020/12/22 08:15:03;;;;;;;7.00;6.50;;;20.80;99.90;;;;;;4975926;28;20448;-73
2020/12/22 08:17:34;;;;;;;6.47;5.97;;;20.80;99.90;;;;;;4975725;28;20503;-75
2020/12/22 08:20:01;;;;;;;6.87;6.37;;;21.50;99.90;;;;;;4976179;28;20455;-67
2020/12/22 08:22:28;;;;;;;5.90;5.50;;;21.40;99.90;;;;;;4975084;28;20538;-69
2020/12/22 08:24:56;;;;;;;5.77;5.30;;;21.80;99.90;;;;;;4975715;28;20855;-72
2020/12/22 08:27:23;;;;;;;6.10;5.60;;;21.50;99.90;;;;;;4975593;28;20502;-70
2020/12/22 08:29:49;;;;;;;6.07;5.67;;;22.10;99.90;;;;;;4975864;28;20447;-77
2020/12/22 08:32:23;;;;;;;6.50;6.00;;;22.20;99.90;;;;;;4975466;28;20451;-73
2020/12/22 08:34:53;;;;;;;7.30;6.80;;;21.90;99.90;;;;;;4975621;28;20469;-70
2020/12/22 08:37:24;;;;;;;6.10;5.70;;;22.10;99.90;;;;;;4976448;28;20483;-70
2020/12/22 08:39:51;;;;;;;6.53;6.10;;;22.50;99.90;;;;;;4976590;28;20444;-70
2020/12/22 08:42:17;;;;;;;5.80;5.40;;;22.30;99.90;;;;;;4975332;28;20452;-70
2020/12/22 08:44:49;;;;;;;5.80;5.40;;;22.60;99.90;;;;;;4974888;28;20495;-72
2020/12/22 08:47:15;;;;;;;5.93;5.53;;;23.10;99.90;;;;;;4975457;28;20448;-72
2020/12/22 08:49:42;;;;;;;5.50;5.10;;;22.70;99.90;;;;;;4975889;28;20824;-71
2020/12/22 08:52:10;;;;;;;5.40;5.00;;;23.10;99.90;;;;;;4975084;28;20466;-69
2020/12/22 08:54:37;;;;;;;15.70;5.50;;;23.20;99.90;;;;;;4974408;28;20514;-69
2020/12/22 08:57:11;;;;;;;6.80;4.93;;;27.70;99.90;;;;;;4974157;28;20455;-69
2020/12/22 08:59:37;;;;;;;7.37;4.23;;;29.60;99.90;;;;;;4970684;28;20974;-68
2020/12/22 09:02:04;;;;;;;11.80;3.87;;;30.30;99.90;;;;;;4972858;28;20451;-67
2020/12/22 09:04:32;;;;;;;6.37;3.57;;;31.50;99.90;;;;;;4973240;28;20498;-68
2020/12/22 09:06:59;;;;;;;6.00;3.80;;;32.10;99.90;;;;;;4974017;28;20859;-67
2020/12/22 09:09:28;;;;;;;8.07;3.93;;;32.00;99.90;;;;;;4972038;28;20475;-69
2020/12/22 09:12:05;;;;;;;5.50;3.90;;;30.90;99.90;;;;;;4973727;28;20457;-69
2020/12/22 09:14:39;;;;;;;3.33;3.03;;;29.90;99.90;;;;;;4972686;28;20471;-67
2020/12/22 09:17:05;;;;;;;4.83;3.43;;;28.40;99.90;;;;;;4974005;28;20798;-67
2020/12/22 09:19:43;;;;;;;2.80;2.30;;;27.20;99.90;;;;;;4973571;28;21110;-67
2020/12/22 09:22:10;;;;;;;6.53;3.20;;;25.40;99.90;;;;;;4973961;28;20458;-67
2020/12/22 09:24:37;;;;;;;3.27;2.37;;;24.40;99.90;;;;;;4972642;28;20497;-69
2020/12/22 09:27:06;;;;;;;18.47;4.93;;;22.70;99.90;;;;;;4973780;28;20455;-70
2020/12/22 09:29:33;;;;;;;19.30;4.80;;;21.20;99.90;;;;;;4973465;28;20510;-69
2020/12/22 09:32:00;;;;;;;9.33;4.57;;;20.10;99.90;;;;;;4972986;28;20460;-70
2020/12/22 09:34:28;;;;;;;9.93;4.43;;;19.30;99.90;;;;;;4972421;28;20474;-70
2020/12/22 09:36:56;;;;;;;10.40;3.70;;;18.90;99.90;;;;;;4973061;28;20456;-70
2020/12/22 09:39:24;;;;;;;4.80;2.63;;;19.10;99.90;;;;;;4973278;28;20452;-70
2020/12/22 09:41:52;;;;;;;9.07;3.87;;;19.00;99.90;;;;;;4973557;28;20451;-69
2020/12/22 09:44:18;;;;;;;2.40;2.20;;;19.10;99.90;;;;;;4972398;28;20490;-66
2020/12/22 09:46:47;;;;;;;2.80;2.60;;;14.70;99.90;;;;;;4972890;28;20466;-68
2020/12/22 09:49:13;;;;;;;3.33;3.10;;;13.60;99.90;;;;;;4973156;28;20481;-66
2020/12/22 09:51:39;;;;;;;3.60;3.40;;;13.70;99.90;;;;;;4971416;28;20459;-65
2020/12/22 09:54:06;;;;;;;4.13;3.83;;;13.80;99.90;;;;;;4972057;28;20491;-65
2020/12/22 09:56:32;;;;;;;4.77;4.37;;;14.10;99.90;;;;;;4972908;28;20471;-65
2020/12/22 09:59:00;;;;;;;3.87;3.57;;;14.50;99.90;;;;;;4972415;28;20614;-66
2020/12/22 10:01:27;;;;;;;5.27;4.73;;;14.60;99.90;;;;;;4973230;28;20470;-66
2020/12/22 10:03:54;;;;;;;5.17;4.77;;;14.90;99.90;;;;;;4963671;28;20494;-65
2020/12/22 10:06:21;;;;;;;5.93;5.53;;;15.10;99.90;;;;;;4953615;28;20460;-66
2020/12/22 10:08:48;;;;;;;4.37;4.07;;;15.30;99.90;;;;;;4962705;28;20455;-66
2020/12/22 10:11:16;;;;;;;4.83;4.33;;;15.50;99.90;;;;;;4972856;28;20439;-66
2020/12/22 10:13:43;;;;;;;4.40;4.10;;;15.70;99.90;;;;;;4971595;28;20476;-67
2020/12/22 10:16:11;;;;;;;4.10;3.80;;;16.20;99.90;;;;;;4972115;28;20962;-66
2020/12/22 10:18:38;;;;;;;4.40;4.00;;;16.00;99.90;;;;;;4972704;28;20567;-66
2020/12/22 10:21:06;;;;;;;4.07;3.77;;;16.10;99.90;;;;;;4972747;28;20454;-63
2020/12/22 10:23:32;;;;;;;4.00;3.70;;;16.40;99.90;;;;;;4972218;28;20499;-65
2020/12/22 10:26:01;;;;;;;3.90;3.60;;;16.70;99.90;;;;;;4972834;28;20835;-66
2020/12/22 10:28:27;;;;;;;3.20;3.00;;;16.60;99.90;;;;;;4972666;28;20458;-65
2020/12/22 10:30:53;;;;;;;4.00;3.53;;;16.70;99.90;;;;;;4972072;28;20453;-66
2020/12/22 10:33:20;;;;;;;3.43;3.23;;;16.90;99.90;;;;;;4972379;28;20483;-66
2020/12/22 10:35:47;;;;;;;3.47;3.27;;;17.00;99.90;;;;;;4971702;28;20459;-70
2020/12/22 10:38:13;;;;;;;3.30;3.00;;;17.10;99.90;;;;;;4974677;28;20517;-70
2020/12/22 10:40:39;;;;;;;3.30;3.00;;;16.80;99.90;;;;;;4977570;28;20455;-70
2020/12/22 10:43:06;;;;;;;3.83;3.47;;;16.80;99.90;;;;;;4978670;28;20497;-69
2020/12/22 10:45:32;;;;;;;4.03;3.73;;;17.10;99.90;;;;;;4987827;28;20463;-70
2020/12/22 10:47:59;;;;;;;3.10;2.70;;;16.80;99.90;;;;;;4983471;28;21032;-72
2020/12/22 10:50:27;;;;;;;1.50;1.40;;;16.70;99.90;;;;;;4972920;28;20474;-70
2020/12/22 10:52:53;;;;;;;1.10;1.10;;;16.60;99.90;;;;;;4980174;28;20578;-71
2020/12/22 10:55:20;;;;;;;1.10;1.10;;;16.20;99.90;;;;;;4981242;28;20455;-70
2020/12/22 10:57:46;;;;;;;1.50;1.40;;;16.40;99.90;;;;;;4979639;28;20467;-71
2020/12/22 11:00:13;;;;;;;1.80;1.40;;;16.00;99.90;;;;;;4976113;28;20980;-70
2020/12/22 11:02:40;;;;;;;2.13;2.03;;;15.80;99.90;;;;;;4976450;28;20966;-71
2020/12/22 11:05:07;;;;;;;1.70;1.60;;;15.70;99.90;;;;;;4973724;28;20455;-70
2020/12/22 11:07:39;;;;;;;2.20;2.00;;;15.70;99.90;;;;;;4971222;28;20478;-70
2020/12/22 11:10:06;;;;;;;2.40;2.30;;;15.50;99.90;;;;;;4969892;28;20449;-70
2020/12/22 11:12:32;;;;;;;3.27;3.00;;;15.50;99.90;;;;;;4975685;28;20463;-69
2020/12/22 11:14:59;;;;;;;3.50;3.30;;;15.20;99.90;;;;;;4975038;28;20447;-70
2020/12/22 11:17:25;;;;;;;6.80;4.77;;;15.20;99.90;;;;;;4975369;28;20451;-70
2020/12/22 11:19:52;;;;;;;6.40;5.30;;;14.30;99.90;;;;;;4975612;28;20517;-71
2020/12/22 11:22:18;;;;;;;6.17;5.53;;;13.90;99.90;;;;;;4976105;28;20455;-69
2020/12/22 11:24:45;;;;;;;7.10;6.40;;;13.90;99.90;;;;;;4974862;28;20491;-69
2020/12/22 11:27:11;;;;;;;6.90;6.30;;;13.60;99.90;;;;;;4976457;28;20462;-71
2020/12/22 11:29:38;;;;;;;7.50;6.77;;;13.30;99.90;;;;;;4975393;28;20447;-81
2020/12/22 11:32:04;;;;;;;7.77;6.70;;;13.10;99.90;;;;;;4977659;28;20505;-78
2020/12/22 11:34:30;;;;;;;8.07;7.27;;;13.10;99.90;;;;;;4975540;28;21032;-75
2020/12/22 11:36:57;;;;;;;9.27;8.03;;;12.80;99.90;;;;;;4976927;28;20455;-77
2020/12/22 11:39:23;;;;;;;8.77;7.27;;;12.80;99.90;;;;;;4976148;28;20460;-75
2020/12/22 11:41:50;;;;;;;9.90;7.90;;;12.70;99.90;;;;;;4975240;28;20947;-67
2020/12/22 11:44:17;;;;;;;10.27;7.17;;;12.80;99.90;;;;;;4974610;28;20813;-66
2020/12/22 11:46:45;;;;;;;8.47;7.07;;;12.40;99.90;;;;;;4975354;28;20463;-67
2020/12/22 11:49:11;;;;;;;7.43;6.00;;;12.30;99.90;;;;;;4974416;28;20488;-65
2020/12/22 11:51:38;;;;;;;11.10;6.73;;;15.80;99.90;;;;;;4975041;28;20451;-65
2020/12/22 11:54:04;;;;;;;8.43;7.03;;;12.30;99.90;;;;;;4974859;28;20479;-65
2020/12/22 11:56:31;;;;;;;12.13;7.13;;;11.90;99.90;;;;;;4974201;28;20460;-68
2020/12/22 11:58:58;;;;;;;14.17;7.70;;;11.80;99.90;;;;;;4972505;28;20467;-65
2020/12/22 12:01:28;;;;;;;9.17;6.83;;;12.40;99.90;;;;;;4972876;28;20470;-65
2020/12/22 12:03:55;;;;;;;8.90;7.33;;;11.70;99.90;;;;;;4974327;28;20478;-65
2020/12/22 12:06:21;;;;;;;7.63;6.43;;;11.60;99.90;;;;;;4974789;28;20938;-65
2020/12/22 12:08:48;;;;;;;10.03;5.43;;;11.60;99.90;;;;;;4974900;28;20451;-65
2020/12/22 12:11:14;;;;;;;6.17;5.57;;;11.40;99.90;;;;;;4974727;28;20473;-65
2020/12/22 12:13:40;;;;;;;6.27;4.70;;;11.20;99.90;;;;;;4973595;28;20483;-65
2020/12/22 12:16:08;;;;;;;6.70;4.20;;;11.20;99.90;;;;;;4974869;28;20463;-65
2020/12/22 12:18:34;;;;;;;10.93;5.17;;;11.10;99.90;;;;;;4974551;28;20459;-65
2020/12/22 12:21:01;;;;;;;9.50;3.90;;;11.10;99.90;;;;;;4974651;28;20463;-67
2020/12/22 12:23:28;;;;;;;8.20;4.20;;;11.10;99.90;;;;;;4974035;28;20498;-66
2020/12/22 12:25:54;;;;;;;7.40;4.27;;;11.10;99.90;;;;;;4973687;28;20467;-65
2020/12/22 12:28:21;;;;;;;4.50;3.20;;;11.10;99.90;;;;;;4973736;28;20455;-66
2020/12/22 12:30:48;;;;;;;4.37;3.77;;;10.90;99.90;;;;;;4974274;28;21129;-67
2020/12/22 12:33:15;;;;;;;3.83;3.43;;;10.80;99.90;;;;;;4973860;28;21021;-66
2020/12/22 12:35:41;;;;;;;3.70;3.40;;;10.80;99.90;;;;;;4955087;29;20452;-65
2020/12/22 12:38:08;;;;;;;5.30;3.17;;;10.80;99.90;;;;;;4969250;28;20818;-66